Login
Access
Login with your mtb-forum.it nickname and password.


You do not have an account? Sign up here for free

KAMY

Last training unit 15/09/2013
1
Followers
12 484 Km
itineraries
143 402 m
of total vertical gain
468
hours of riding
27.28 Km/h
average speed
125
average HR


15/09/2013 Show to everybody Avesani 175.22 Km 3667 m 06:46:05 25.89 Km\h DOGMA 2
14/09/2013 Show to everybody 1 28.69 Km 11 m 01:15:28 22.81 Km\h DOGMA 2
13/09/2013 Show to everybody 1,5 74.28 Km 602 m 02:34:44 28.8 Km\h DOGMA 2
11/09/2013 Show to everybody 2 26.2 Km 333 m 01:06:24 23.68 Km\h DOGMA 2
09/09/2013 Show to everybody 3 44.09 Km 68 m 01:10:33 37.49 Km\h DOGMA 2
08/09/2013 Show to everybody 4 58.69 Km 1151 m 01:58:17 29.77 Km\h DOGMA 2
06/09/2013 Show to everybody 5 66.22 Km 290 m 02:26:10 27.18 Km\h DOGMA 2
05/09/2013 Show to everybody 6 3.22 Km 0 m 00:06:00 32.16 Km\h DOGMA 2
03/09/2013 Show to everybody 7 46.33 Km 21 m 01:50:56 25.06 Km\h DOGMA 2
02/09/2013 Show to everybody 8 41.92 Km 34 m 01:21:46 30.76 Km\h DOGMA 2
30/08/2013 Show to everybody Orbetello 35.66 Km 130 m 01:16:55 27.82 Km\h DOGMA 2
29/08/2013 Show to everybody Orb. 1 90.54 Km 425 m 03:26:06 26.36 Km\h DOGMA 2
27/08/2013 Show to everybody Orb. 2 55.79 Km 416 m 02:16:58 24.44 Km\h DOGMA 2
26/08/2013 Show to everybody Orb. 3 36.79 Km 129 m 01:20:47 27.33 Km\h DOGMA 2
22/08/2013 Show to everybody Orb.11 24.75 Km 42 m 00:53:19 27.85 Km\h DOGMA 2
21/08/2013 Show to everybody stelvio ultimi 15 km 15.96 Km 1129 m 01:09:51 13.71 Km\h DOGMA 2
21/08/2013 Show to everybody stelvio con i ragazzi 8.92 Km 352 m 00:35:24 15.12 Km\h DOGMA 2
20/08/2013 Show to everybody livigno con i ragazzi 44 Km 110 m 01:44:33 25.25 Km\h DOGMA 2
19/08/2013 Show to everybody doppio stelvio da livigno 124.57 Km 3818 m 06:27:15 19.3 Km\h DOGMA 2
18/08/2013 Show to everybody livigno es. 39.24 Km 510 m 01:42:47 22.9 Km\h DOGMA 2
17/08/2013 Show to everybody livigno es. 25.83 Km 68 m 01:00:26 25.65 Km\h DOGMA 2
16/08/2013 Show to everybody ?? 77.7 Km 380 m 02:32:01 30.67 Km\h DOGMA 2
13/08/2013 Show to everybody es. all. 64.5 Km 22 m 02:04:19 31.13 Km\h DOGMA 2
10/08/2013 Show to everybody es. all 24.35 Km 21 m 00:57:26 25.43 Km\h DOGMA 2
09/08/2013 Show to everybody allievi 30.31 Km 5 m 00:46:01 39.53 Km\h DOGMA 2
08/08/2013 Show to everybody villafora 65.04 Km 31 m 01:38:19 39.69 Km\h DOGMA 2
07/08/2013 Show to everybody allievi 62.09 Km 377 m 02:05:19 29.73 Km\h DOGMA 2
06/08/2013 Show to everybody esordienti 26.32 Km 154 m 00:59:37 26.49 Km\h DOGMA 2
06/08/2013 Show to everybody sossano 55.01 Km 87 m 01:15:25 43.77 Km\h DOGMA 2
05/08/2013 Show to everybody roby 21.62 Km 8 m 00:48:22 26.82 Km\h DOGMA 2
03/08/2013 Show to everybody due carrare 54.89 Km 43 m 01:21:28 40.42 Km\h DOGMA 2
03/08/2013 Show to everybody riscaldamento 11.05 Km 5 m 00:22:03 30.05 Km\h DOGMA 2
31/07/2013 Show to everybody calaon 51.8 Km 371 m 01:49:12 28.46 Km\h DOGMA 2
29/07/2013 Show to everybody visentina 28.51 Km 35 m 00:57:02 30 Km\h DOGMA 2
27/07/2013 Show to everybody perarolo 75.03 Km 605 m 02:47:17 26.91 Km\h DOGMA 2
25/07/2013 Show to everybody osimo 2 57.33 Km 130 m 01:48:40 31.66 Km\h DOGMA 2
24/07/2013 Show to everybody osimo 39.47 Km 283 m 01:26:10 27.48 Km\h DOGMA 2
23/07/2013 Show to everybody osimo 53 Km 662 m 02:02:27 25.97 Km\h DOGMA 2
21/07/2013 Show to everybody Charly gaul 141.55 Km 3519 m 05:48:42 24.36 Km\h DOGMA 2
17/07/2013 Show to everybody scarico 56.09 Km 521 m 02:05:27 26.83 Km\h DOGMA 2
16/07/2013 Show to everybody recupero 52.8 Km 169 m 01:59:25 26.53 Km\h DOGMA 2
13/07/2013 Show to everybody s.giovanni ilarione 134.9 Km 657 m 04:31:33 29.81 Km\h DOGMA 2
10/07/2013 Show to everybody osimo 43.55 Km 471 m 01:38:33 26.51 Km\h DOGMA 2
09/07/2013 Show to everybody Roveredo di Guà 47.22 Km 34 m 01:31:43 30.89 Km\h DOGMA 2
06/07/2013 Show to everybody prova charly 108.36 Km 2652 m 04:51:49 22.28 Km\h DOGMA 2
04/07/2013 Show to everybody serra 2 63.41 Km 1464 m 02:53:30 21.93 Km\h DOGMA 2
03/07/2013 Show to everybody serra 1 62.07 Km 943 m 02:43:59 22.71 Km\h DOGMA 2
02/07/2013 Show to everybody mt. serra 51.72 Km 869 m 02:14:31 23.07 Km\h DOGMA 2
30/06/2013 Show to everybody cavareno fondo 65.28 Km 1070 m 02:22:00 27.58 Km\h DOGMA 2
30/06/2013 Show to everybody cavareno risc. 19.67 Km 282 m 00:41:32 28.42 Km\h DOGMA 2
30/06/2013 Show to everybody cavareno crono. 1 1.91 Km 37 m 00:03:32 32.5 Km\h DOGMA 2
30/06/2013 Show to everybody cavareno cono 2 1.71 Km 25 m 00:02:51 35.98 Km\h DOGMA 2
30/06/2013 Show to everybody cavareno def. 8.54 Km 92 m 00:23:06 22.19 Km\h DOGMA 2
29/06/2013 Show to everybody cavareno circuito 34.29 Km 500 m 01:14:39 27.56 Km\h DOGMA 2
28/06/2013 Show to everybody valpomaro 65.58 Km 475 m 02:24:42 27.19 Km\h DOGMA 2
27/06/2013 Show to everybody bertinoro 42.34 Km 336 m 01:33:13 27.25 Km\h DOGMA 2
25/06/2013 Show to everybody sirolo 27.99 Km 744 m 01:28:48 18.91 Km\h DOGMA 2
23/06/2013 Show to everybody GIAZZA - REVOLTO 159.84 Km 1448 m 05:18:20 30.13 Km\h DOGMA 2
19/06/2013 Show to everybody Raticosa 1 89.84 Km 1156 m 03:07:53 28.69 Km\h DOGMA 2
18/06/2013 Show to everybody Passo Raticosa 79.54 Km 1057 m 03:01:57 26.23 Km\h DOGMA 2
17/06/2013 Show to everybody VALPOMARO 66.03 Km 445 m 02:25:47 27.18 Km\h DOGMA 2
15/06/2013 Show to everybody buso della giareta 56.77 Km 321 m 02:27:13 23.14 Km\h DOGMA 2
14/06/2013 Show to everybody berici 75.48 Km 752 m 02:51:26 26.42 Km\h DOGMA 2
09/06/2013 Show to everybody 3 34.08 Km 256 m 01:31:19 22.39 Km\h DOGMA 2
07/06/2013 Show to everybody 5 82.29 Km 692 m 03:06:24 26.49 Km\h DOGMA 2
07/06/2013 Show to everybody 4 41.26 Km 35 m 01:23:04 29.8 Km\h DOGMA 2
01/06/2013 Show to everybody 7 164.13 Km 1381 m 05:23:32 30.44 Km\h DOGMA 2
15/05/2013 Show to everybody 9 59.09 Km 671 m 02:05:48 28.18 Km\h DOGMA 2
12/05/2013 Show to everybody 8 50.36 Km 356 m 02:13:27 22.64 Km\h DOGMA 2
11/05/2013 Show to everybody 6 21.2 Km 10 m 00:51:39 24.63 Km\h DOGMA 2
11/05/2013 Show to everybody 7 16.33 Km 12 m 00:24:18 40.33 Km\h DOGMA 2
08/05/2013 Show to everybody 5 33.17 Km 20 m 01:03:24 31.39 Km\h DOGMA 2
07/05/2013 Show to everybody 4 47.92 Km 299 m 01:37:12 29.58 Km\h DOGMA 2
04/05/2013 Show to everybody 2 54.85 Km 295 m 02:09:25 25.43 Km\h DOGMA 2
01/05/2013 Show to everybody 1 21.22 Km 12 m 00:31:08 40.9 Km\h DOGMA 2
13/04/2013 Show to everybody 17-4 85.62 Km 68 m 02:01:35 42.25 Km\h DOGMA 2
13/04/2013 Show to everybody 16-4 12.2 Km 13 m 00:28:32 25.66 Km\h DOGMA 2
04/04/2013 Show to everybody 4-4 39.3 Km 36 m 01:05:12 36.17 Km\h DOGMA 2
03/04/2013 Show to everybody 3-4 46.76 Km 424 m 01:41:41 27.59 Km\h DOGMA 2
02/04/2013 Show to everybody 2-4 22.41 Km 52 m 00:41:37 32.31 Km\h DOGMA 2
01/04/2013 Show to everybody 1-4 68.86 Km 387 m 02:32:39 27.07 Km\h DOGMA 2
30/03/2013 Show to everybody 1003 70.7 Km 901 m 02:58:46 23.73 Km\h DOGMA 2
23/03/2013 Show to everybody 903 124.03 Km 1824 m 04:58:45 24.91 Km\h DOGMA 2
17/03/2013 Show to everybody 803 50.47 Km 158 m 01:50:49 27.33 Km\h DOGMA 2
16/03/2013 Show to everybody 703 120.68 Km 1793 m 04:59:57 24.14 Km\h DOGMA 2
10/03/2013 Show to everybody 603 78.59 Km 407 m 02:50:15 27.7 Km\h DOGMA 2
09/03/2013 Show to everybody 503 133.05 Km 1315 m 05:12:40 25.53 Km\h DOGMA 2
03/03/2013 Show to everybody 103 63.11 Km 181 m 02:37:20 24.07 Km\h DOGMA 2
02/03/2013 Show to everybody 103 98.89 Km 258 m 03:24:30 29.01 Km\h DOGMA 2
13/10/2012 Show to everybody teolo castelnuovo 62.36 Km 316 m 02:11:54 28.37 Km\h DOGMA 2
09/10/2012 Show to everybody teolo 61.43 Km 211 m 02:03:20 29.89 Km\h DOGMA 2
07/10/2012 Show to everybody mmaratona roby 58.42 Km 199 m 04:42:46 12.4 Km\h DOGMA 2
06/10/2012 Show to everybody berici 100.88 Km 899 m 03:29:25 28.9 Km\h DOGMA 2
03/10/2012 Show to everybody grosseto 75.81 Km 680 m 02:22:59 31.81 Km\h DOGMA 2
02/10/2012 Show to everybody castiglion fiorentino 65.16 Km 711 m 02:24:13 27.11 Km\h DOGMA 2
30/09/2012 Show to everybody berici 76.08 Km 728 m 02:45:35 27.57 Km\h DOGMA 2
27/09/2012 Show to everybody osimo 48.99 Km 600 m 01:55:19 25.49 Km\h DOGMA 2
25/09/2012 Show to everybody portonovo 22.45 Km 626 m 01:05:53 20.44 Km\h DOGMA 2
23/09/2012 Show to everybody gara orgiano 101.01 Km 197 m 02:22:53 42.42 Km\h DOGMA 2
19/09/2012 Show to everybody pozzolo 55.45 Km 181 m 01:51:31 29.83 Km\h DOGMA 2
16/09/2012 Show to everybody giretto 175.36 Km 3661 m 06:51:46 25.55 Km\h DOGMA 2
13/09/2012 Show to everybody giretto 37.79 Km 607 m 01:48:55 20.82 Km\h DOGMA 2
08/09/2012 Show to everybody Borgo valsugana 178.99 Km 2276 m 06:42:14 26.7 Km\h DOGMA 2
04/09/2012 Show to everybody Strappi villaga 55.73 Km 152 m 01:47:47 31.02 Km\h DOGMA 2
03/09/2012 Show to everybody giretto da caneva 23.2 Km 47 m 00:47:11 29.5 Km\h DOGMA 2
31/08/2012 Show to everybody massa marittima 24.57 Km 322 m 01:04:19 22.92 Km\h DOGMA 2
30/08/2012 Show to everybody Scarlino 62.39 Km 616 m 02:34:26 24.24 Km\h DOGMA 2
29/08/2012 Show to everybody Scarlino Leo 73.33 Km 806 m 02:51:03 25.72 Km\h DOGMA 2
28/08/2012 Show to everybody Scarlino Leo 38.16 Km 297 m 01:36:31 23.72 Km\h DOGMA 2
26/08/2012 Show to everybody gara Leo 75.54 Km 197 m 02:31:41 29.88 Km\h DOGMA 2
24/08/2012 Show to everybody Sella Ronda 1 51.56 Km 1655 m 02:28:43 20.8 Km\h DOGMA 2
23/08/2012 Show to everybody Sella Ronda 51.84 Km 1691 m 02:43:20 19.04 Km\h DOGMA 2
19/08/2012 Show to everybody sella ronda con leo 52.34 Km 1613 m 03:36:40 14.49 Km\h DOGMA 2
15/08/2012 Show to everybody gara leo 39.38 Km 43 m 01:06:22 35.6 Km\h DOGMA 2
13/08/2012 Show to everybody esordienti + filippo 97.22 Km 905 m 03:53:48 24.95 Km\h DOGMA 2
09/08/2012 Show to everybody berici 78.1 Km 566 m 03:15:30 23.97 Km\h DOGMA 2
08/08/2012 Show to everybody esordienti lovolo 61.68 Km 271 m 02:26:18 25.3 Km\h DOGMA 2
06/08/2012 Show to everybody esordienti teolo 68.13 Km 237 m 02:41:38 25.29 Km\h DOGMA 2
07/07/2012 Show to everybody monticello fi fara (mezza gara) 21.61 Km 44 m 00:33:54 38.25 Km\h DOGMA 2
03/07/2012 Show to everybody venda - mt. madonna 95.94 Km 1181 m 03:59:51 24 Km\h DOGMA 2
30/06/2012 Show to everybody berici 75.47 Km 601 m 02:45:14 27.41 Km\h DOGMA 2
29/06/2012 Show to everybody leo 15.25 Km 0 m 00:37:11 24.61 Km\h DOGMA 2
28/06/2012 Show to everybody monte madonna 69.38 Km 495 m 02:38:37 26.24 Km\h DOGMA 2
24/06/2012 Show to everybody GF Giordana 175.13 Km 4066 m 07:37:07 22.99 Km\h DOGMA 2
14/06/2012 Show to everybody monte della madonna 70.79 Km 995 m 02:40:30 26.46 Km\h DOGMA 2
13/06/2012 Show to everybody Bocca d\`ascesa - perarolo 75.28 Km 1099 m 02:47:51 26.91 Km\h DOGMA 2
12/06/2012 Show to everybody leo 13.06 Km 104 m 00:26:00 30.15 Km\h DOGMA 2
10/06/2012 Show to everybody Eddy Merckx 153.07 Km 3849 m 05:53:57 25.95 Km\h DOGMA 2
09/06/2012 Show to everybody scarico 28.43 Km 141 m 01:08:01 25.08 Km\h DOGMA 2
07/06/2012 Show to everybody monte titano 52.97 Km 870 m 02:29:41 21.23 Km\h DOGMA 2
06/06/2012 Show to everybody Faenza - Brisighella - Modigliana - Trebbio - Forlì 84.84 Km 1413 m 03:25:33 24.77 Km\h DOGMA 2
05/06/2012 Show to everybody Bertinoro + SFR 62.87 Km 1132 m 02:29:53 25.17 Km\h DOGMA 2
02/06/2012 Show to everybody lungo, allenamento + gara 165.34 Km 1539 m 04:52:13 33.95 Km\h DOGMA 2
01/06/2012 Show to everybody con leo berici 34.74 Km 663 m 01:25:13 24.46 Km\h DOGMA 2
30/05/2012 Show to everybody grosseto 75.86 Km 1031 m 02:27:00 30.96 Km\h DOGMA 2
29/05/2012 Show to everybody siena 52.88 Km 1069 m 02:11:48 24.07 Km\h DOGMA 2
27/05/2012 Show to everybody marcialonga 76.87 Km 1943 m 02:48:30 27.37 Km\h DOGMA 2
15/05/2012 Show to everybody Bocca d\`ascesa - Perarolo - S. Gottardo 75.37 Km 959 m 02:26:22 30.9 Km\h DOGMA 2
09/05/2012 Show to everybody Strappi teolo 54.07 Km 506 m 01:51:06 29.2 Km\h DOGMA 2
08/05/2012 Show to everybody Ripetute Teolo 69.66 Km 802 m 02:35:23 26.9 Km\h DOGMA 2
06/05/2012 Show to everybody Marostica 159.95 Km 3760 m 05:53:30 27.15 Km\h DOGMA 2
05/05/2012 Show to everybody Roveredo Leo 17.87 Km 155 m 00:49:50 21.51 Km\h DOGMA 2
04/05/2012 Show to everybody Teolo A/R 69.05 Km 623 m 02:22:16 29.12 Km\h DOGMA 2
03/05/2012 Show to everybody Osimo Stazione 54.05 Km 1186 m 02:21:55 22.85 Km\h DOGMA 2
02/05/2012 Show to everybody Osimo Stazione 37.85 Km 629 m 01:34:55 23.93 Km\h DOGMA 2
30/04/2012 Show to everybody Perarolo villabalzana x 1 110.08 Km 1520 m 03:56:08 27.97 Km\h DOGMA 2
30/04/2012 Show to everybody Roveredo Leo 17.82 Km 131 m 00:55:22 19.31 Km\h DOGMA 2
28/04/2012 Show to everybody teolo castelnuovo 68.22 Km 955 m 02:20:32 29.13 Km\h DOGMA 2
26/04/2012 Show to everybody ripetute teolo 61.51 Km 496 m 02:12:44 27.8 Km\h DOGMA 2
25/04/2012 Show to everybody perarolo villabalzana 94.68 Km 1443 m 03:29:43 27.09 Km\h DOGMA 2
22/04/2012 Show to everybody GF Città di Vicenza 152.15 Km 2782 m 05:02:03 30.22 Km\h DOGMA 2
20/04/2012 Show to everybody teolo a/r 68.03 Km 580 m 02:20:55 28.97 Km\h DOGMA 2
19/04/2012 Show to everybody Collesalvietti LI 33.22 Km 422 m 01:20:13 24.85 Km\h DOGMA 2
18/04/2012 Show to everybody lucca 31.67 Km 417 m 01:21:30 23.32 Km\h DOGMA 2
17/04/2012 Show to everybody lucca 52.5 Km 881 m 02:17:13 22.96 Km\h DOGMA 2
14/04/2012 Show to everybody leo 18.15 Km 131 m 00:51:03 21.33 Km\h DOGMA 2
12/04/2012 Show to everybody castel san pietro 57.59 Km 1197 m 02:37:58 21.87 Km\h DOGMA 2
10/04/2012 Show to everybody lungo Schio 181.84 Km 3124 m 07:36:31 23.9 Km\h DOGMA 2
09/04/2012 Show to everybody sossano san germano 62.54 Km 628 m 02:17:54 27.21 Km\h DOGMA 2
07/04/2012 Show to everybody occhiobello 47.16 Km 267 m 01:09:51 40.51 Km\h DOGMA 2
06/04/2012 Show to everybody con filippo 90.6 Km 671 m 03:18:23 27.4 Km\h DOGMA 2
05/04/2012 Show to everybody teolo ar 66.43 Km 735 m 02:29:18 26.7 Km\h DOGMA 2
04/04/2012 Show to everybody teolo 76.64 Km 957 m 03:02:08 25.25 Km\h DOGMA 2
26/03/2012 Show to everybody teolo 69.19 Km 727 m 02:31:50 27.34 Km\h DOGMA 2
25/03/2012 Show to everybody berici 48.93 Km 376 m 01:42:08 28.75 Km\h DOGMA 2
24/03/2012 Show to everybody berici 138.54 Km 2062 m 04:46:29 29.02 Km\h DOGMA 2
23/03/2012 Show to everybody leo 26.89 Km 171 m 01:05:11 24.75 Km\h DOGMA 2
22/03/2012 Show to everybody euganei 59.96 Km 595 m 02:01:47 29.54 Km\h DOGMA 2
20/03/2012 Show to everybody 7,5 7.23 Km 52 m 00:15:14 28.49 Km\h DOGMA 2
18/03/2012 Show to everybody leo 50.11 Km 454 m 01:40:48 29.83 Km\h DOGMA 2
17/03/2012 Show to everybody valdagno 181.95 Km 2777 m 06:52:18 26.48 Km\h DOGMA 2
15/03/2012 Show to everybody teolo 70.6 Km 657 m 02:21:54 29.85 Km\h DOGMA 2
14/03/2012 Show to everybody grosseto 20.81 Km 178 m 00:55:48 22.37 Km\h DOGMA 2
13/03/2012 Show to everybody grosseto 75.97 Km 1139 m 02:38:59 28.67 Km\h DOGMA 2
12/03/2012 Show to everybody siena 57.55 Km 1312 m 02:27:11 23.46 Km\h DOGMA 2
11/03/2012 Show to everybody non so 76.37 Km 303 m 02:29:20 30.68 Km\h DOGMA 2
10/03/2012 Show to everybody berici 127.85 Km 1958 m 04:46:26 26.78 Km\h DOGMA 2
09/03/2012 Show to everybody teolo ar 67.74 Km 683 m 02:22:18 28.56 Km\h DOGMA 2
06/03/2012 Show to everybody teolo ar 56.36 Km 452 m 01:52:03 30.18 Km\h DOGMA 2
04/03/2012 Show to everybody vo 28.98 Km 207 m 01:21:29 21.34 Km\h DOGMA 2
03/03/2012 Show to everybody cerea 71.93 Km 338 m 01:37:59 44.05 Km\h DOGMA 2
29/02/2012 Show to everybody leo 57.33 Km 308 m 02:14:33 25.57 Km\h DOGMA 2
29/01/2012 Show to everybody Colli 38.32 Km 233 m 01:30:31 25.4 Km\h DOGMA 2
28/01/2012 Show to everybody Con gruppo padova 112.86 Km 1027 m 03:40:24 30.72 Km\h DOGMA 2
25/01/2012 Show to everybody Livorno 60.27 Km 904 m 02:26:31 24.68 Km\h DOGMA 2
24/01/2012 Show to everybody Livorno 49.62 Km 789 m 02:04:20 23.94 Km\h DOGMA 2
22/01/2012 Show to everybody Colli 30.64 Km 157 m 01:13:04 25.16 Km\h DOGMA 2
21/01/2012 Show to everybody Colli 84.07 Km 1145 m 03:28:48 24.16 Km\h DOGMA 2
14/01/2012 Show to everybody Giro colli 128.22 Km 978 m 04:18:47 29.73 Km\h DOGMA 2
07/01/2012 Show to everybody con gruppo padova 111.95 Km 1108 m 03:58:45 28.13 Km\h DOGMA 2
04/01/2012 Show to everybody teolo 61.09 Km 632 m 02:19:22 26.3 Km\h DOGMA 2

Show previous years trainings
This user's bikes.
DOGMA 2 130 7989.39 Km 84860 m 303:16:05 27.4 Km/h

153 points
Kilometers
0
Vertical gain
0
Rank:101

Watch ranking »

 

Bike name

Delete this bike?

Now you follow this users and you can compare your trainings

If you stop following this users you will not be able to compare your trainings with his


bdc-forum.it | 2012-2019 Training Camp v.1.0.15